جدة, السعودية

12:14 AM AST on سبتهبر 03, 2014 (GMT +0300)
King Abdulaziz International | Change Station
CLOSE
Current Station
Airport
Location: Jeddah,
Elevation: 49 ft
Nearby Weather Stations

Elev 49 ft 21.70 °N, 39.18 °E | Updated 14 minutes ago

Scattered Clouds
غيوم متفرقة
90 °F
Feels Like 100 °F
N
0
ريح متغير ريح from شمال

هذا اليوم
High -- | Low -- °F
--% Chance of Precip.
Yesterday
High -- | Low -- °F
Precip. -- في
6:07 AM 6:38 PM
الربع الاول, 55% visible
الضغط 29.62 في
وضوح الرؤية 6.2 أميال
سحابات غيوم متفرقة 4000 ft
مؤشر الحرارة 100 °F
نقطة الندى 75 °F
الرطوبة 62%
Rainfall 0.00 في
عمق الثلج Not available.
الأشعة فوق البنفسجية 0 out of 12
Pollen Not available.
جودة الهواء Not available.
Flu Activity Not available.
METAR OEJN 022100Z 00000KT 9999 SCT040 32/24 Q1003 NOSIG

More Conditions Fewer Conditions

الضغط 29.62 في
وضوح الرؤية 6.2 أميال
سحابات غيوم متفرقة 4000 ft
مؤشر الحرارة 100 °F
نقطة الندى 75 °F
الرطوبة 62%
Rainfall 0.00 في
عمق الثلج Not available.
الأشعة فوق البنفسجية 0 out of 12
Pollen Not available.
جودة الهواء Not available.
Flu Activity Not available.
METAR OEJN 022100Z 00000KT 9999 SCT040 32/24 Q1003 NOSIG

More Conditions Fewer Conditions

10-Day Weather Forecast

Almanac

علم الفلك

Sep. 03, 2014 Rise Set
Actual Time 6:07 AM AST 6:38 PM AST
Civil Twilight 5:44 AM AST 7:00 PM AST
Nautical Twilight 5:18 AM AST 7:27 PM AST
Astronomical Twilight 4:51 AM AST 7:53 PM AST
قمر 1:36 PM AST (9/3) 12:03 AM AST (9/3)
Length Of Visible Light 13h 16m
طول الیوم
12h 31m
Tomorrow will be 1m 12s shorter.
الربع الاول, 55% of the Moon is Illuminated
Sep 2
الربع الاول
Sep 8
بدر
Sep 15
الربع الآخر
Sep 24
New
Oct 1
الربع الاول

Yesterday's Extremes

Country Highs Country Lows

Community

WunderPhotos

Upload Photos

1,749,769 photos uploaded!

Nearby

جودة الهواء

Not available.

عمق الثلج

Not available.

Earthquake Activity

City Distance Mag. Time & Date
No recent earthquake activity has been reported nearby.
Minimum magnitude displayed is 2.5.

Coastal Water Temperatures

مكان درجات الحرارة
No Stations Reporting

Nearby Weather Stations